Weather at Medical City McKinney Heliport

Public forecast

Using degrees Fahrenheit for public forecast. Weather courtesy of forecast.io.

Closest aviation weather report (METAR) to Medical City McKinney Heliport

Closest report is McKinney National Airport, 2.5 nm (4.7 km) ENE.

2024/07/13 18:53 (retrieved 25 minutes ago)

KTKI 131853Z 20009G17KT 10SM FEW050 34/20 A3014 RMK AO2 SLP197 T03390200

Closest aviation forecast (TAF) to Medical City McKinney Heliport

Closest forecast is Dallas Love Field, 21.7 nm (40.3 km) SSW.

2024/07/13 18:22 (retrieved 56 minutes ago)

TAF KDAL 131720Z 1318/1418 18013KT P6SM SCT050